sensor_id;sensor_type;location;lat;lon;timestamp;P1;durP1;ratioP1;P2;durP2;ratioP2
69502;SDS011;56704;54.242;12.442;2023-03-31T00:01:48;3.90;;;0.70;;
69502;SDS011;56704;54.242;12.442;2023-03-31T00:04:18;9.88;;;1.67;;
69502;SDS011;56704;54.242;12.442;2023-03-31T00:06:48;7.72;;;1.45;;
69502;SDS011;56704;54.242;12.442;2023-03-31T00:09:18;5.35;;;1.00;;
69502;SDS011;56704;54.242;12.442;2023-03-31T00:11:46;8.90;;;2.55;;
69502;SDS011;56704;54.242;12.442;2023-03-31T00:14:13;9.73;;;2.13;;
69502;SDS011;56704;54.242;12.442;2023-03-31T00:16:41;5.85;;;1.25;;
69502;SDS011;56704;54.242;12.442;2023-03-31T00:19:09;2.53;;;0.35;;
69502;SDS011;56704;54.242;12.442;2023-03-31T00:21:43;5.18;;;1.35;;
69502;SDS011;56704;54.242;12.442;2023-03-31T00:24:10;7.18;;;0.80;;
69502;SDS011;56704;54.242;12.442;2023-03-31T00:26:38;11.23;;;2.30;;
69502;SDS011;56704;54.242;12.442;2023-03-31T00:29:05;11.38;;;2.47;;
69502;SDS011;56704;54.242;12.442;2023-03-31T00:31:34;7.45;;;1.52;;
69502;SDS011;56704;54.242;12.442;2023-03-31T00:34:03;11.75;;;2.20;;
69502;SDS011;56704;54.242;12.442;2023-03-31T00:36:29;5.82;;;1.20;;
69502;SDS011;56704;54.242;12.442;2023-03-31T00:39:03;11.07;;;2.63;;
69502;SDS011;56704;54.242;12.442;2023-03-31T00:41:32;9.77;;;1.75;;
69502;SDS011;56704;54.242;12.442;2023-03-31T00:44:01;7.32;;;1.67;;
69502;SDS011;56704;54.242;12.442;2023-03-31T00:46:32;6.60;;;2.03;;
69502;SDS011;56704;54.242;12.442;2023-03-31T00:49:01;9.57;;;2.47;;
69502;SDS011;56704;54.242;12.442;2023-03-31T00:51:28;7.57;;;1.07;;
69502;SDS011;56704;54.242;12.442;2023-03-31T00:54:00;9.07;;;2.03;;
69502;SDS011;56704;54.242;12.442;2023-03-31T00:56:33;10.57;;;1.75;;
69502;SDS011;56704;54.242;12.442;2023-03-31T00:59:03;7.53;;;1.85;;
69502;SDS011;56704;54.242;12.442;2023-03-31T01:01:33;6.40;;;1.15;;
69502;SDS011;56704;54.242;12.442;2023-03-31T01:04:04;8.60;;;2.23;;
69502;SDS011;56704;54.242;12.442;2023-03-31T01:06:33;9.05;;;2.38;;
69502;SDS011;56704;54.242;12.442;2023-03-31T01:09:05;8.70;;;2.30;;
69502;SDS011;56704;54.242;12.442;2023-03-31T01:11:32;4.95;;;1.52;;
69502;SDS011;56704;54.242;12.442;2023-03-31T01:14:00;6.65;;;1.55;;
69502;SDS011;56704;54.242;12.442;2023-03-31T01:16:28;10.33;;;2.30;;
69502;SDS011;56704;54.242;12.442;2023-03-31T01:18:55;4.57;;;1.00;;
69502;SDS011;56704;54.242;12.442;2023-03-31T01:27:41;5.20;;;1.27;;
69502;SDS011;56704;54.242;12.442;2023-03-31T01:30:23;7.40;;;1.70;;
69502;SDS011;56704;54.242;12.442;2023-03-31T01:33:09;9.30;;;1.40;;
69502;SDS011;56704;54.242;12.442;2023-03-31T01:41:49;9.95;;;2.47;;
69502;SDS011;56704;54.242;12.442;2023-03-31T01:44:25;6.00;;;1.10;;
69502;SDS011;56704;54.242;12.442;2023-03-31T01:46:59;6.97;;;1.38;;
69502;SDS011;56704;54.242;12.442;2023-03-31T01:49:32;5.97;;;0.88;;
69502;SDS011;56704;54.242;12.442;2023-03-31T01:52:07;10.55;;;1.58;;
69502;SDS011;56704;54.242;12.442;2023-03-31T01:54:42;10.05;;;2.40;;
69502;SDS011;56704;54.242;12.442;2023-03-31T01:57:16;6.50;;;1.50;;
69502;SDS011;56704;54.242;12.442;2023-03-31T01:59:48;8.18;;;1.50;;
69502;SDS011;56704;54.242;12.442;2023-03-31T02:02:20;9.27;;;2.25;;
69502;SDS011;56704;54.242;12.442;2023-03-31T02:04:53;7.95;;;2.10;;
69502;SDS011;56704;54.242;12.442;2023-03-31T02:07:26;6.90;;;1.80;;
69502;SDS011;56704;54.242;12.442;2023-03-31T02:09:57;4.67;;;1.37;;
69502;SDS011;56704;54.242;12.442;2023-03-31T02:12:29;8.60;;;1.90;;
69502;SDS011;56704;54.242;12.442;2023-03-31T02:14:58;9.95;;;2.25;;
69502;SDS011;56704;54.242;12.442;2023-03-31T02:17:26;9.20;;;2.53;;
69502;SDS011;56704;54.242;12.442;2023-03-31T02:19:54;7.45;;;2.30;;
69502;SDS011;56704;54.242;12.442;2023-03-31T02:22:28;8.37;;;1.23;;
69502;SDS011;56704;54.242;12.442;2023-03-31T02:24:58;8.57;;;2.15;;
69502;SDS011;56704;54.242;12.442;2023-03-31T02:27:29;10.32;;;2.25;;
69502;SDS011;56704;54.242;12.442;2023-03-31T02:29:58;4.78;;;1.58;;
69502;SDS011;56704;54.242;12.442;2023-03-31T02:32:26;8.23;;;1.80;;
69502;SDS011;56704;54.242;12.442;2023-03-31T02:34:57;14.33;;;2.87;;
69502;SDS011;56704;54.242;12.442;2023-03-31T02:37:25;10.02;;;2.53;;
69502;SDS011;56704;54.242;12.442;2023-03-31T02:39:54;4.90;;;0.98;;
69502;SDS011;56704;54.242;12.442;2023-03-31T02:42:23;6.85;;;1.73;;
69502;SDS011;56704;54.242;12.442;2023-03-31T02:44:51;6.75;;;2.28;;
69502;SDS011;56704;54.242;12.442;2023-03-31T02:47:18;11.80;;;2.50;;
69502;SDS011;56704;54.242;12.442;2023-03-31T02:49:47;10.30;;;2.28;;
69502;SDS011;56704;54.242;12.442;2023-03-31T02:52:23;14.68;;;2.17;;
69502;SDS011;56704;54.242;12.442;2023-03-31T02:55:14;6.53;;;1.77;;
69502;SDS011;56704;54.242;12.442;2023-03-31T03:01:00;5.87;;;1.27;;
69502;SDS011;56704;54.242;12.442;2023-03-31T03:03:38;11.95;;;2.53;;
69502;SDS011;56704;54.242;12.442;2023-03-31T03:06:15;15.13;;;2.83;;
69502;SDS011;56704;54.242;12.442;2023-03-31T03:08:56;13.05;;;2.80;;
69502;SDS011;56704;54.242;12.442;2023-03-31T03:11:31;7.70;;;2.00;;
69502;SDS011;56704;54.242;12.442;2023-03-31T03:14:05;11.33;;;2.83;;
69502;SDS011;56704;54.242;12.442;2023-03-31T03:16:40;14.07;;;2.60;;
69502;SDS011;56704;54.242;12.442;2023-03-31T03:19:09;9.80;;;2.22;;
69502;SDS011;56704;54.242;12.442;2023-03-31T03:21:42;7.43;;;1.95;;
69502;SDS011;56704;54.242;12.442;2023-03-31T03:24:09;15.63;;;3.17;;
69502;SDS011;56704;54.242;12.442;2023-03-31T03:26:36;7.53;;;1.90;;
69502;SDS011;56704;54.242;12.442;2023-03-31T03:29:04;10.43;;;3.22;;
69502;SDS011;56704;54.242;12.442;2023-03-31T03:31:30;6.97;;;2.10;;
69502;SDS011;56704;54.242;12.442;2023-03-31T03:33:59;9.23;;;3.10;;
69502;SDS011;56704;54.242;12.442;2023-03-31T03:36:25;12.48;;;3.13;;
69502;SDS011;56704;54.242;12.442;2023-03-31T03:38:52;15.40;;;4.63;;
69502;SDS011;56704;54.242;12.442;2023-03-31T03:41:18;11.65;;;3.38;;
69502;SDS011;56704;54.242;12.442;2023-03-31T03:43:45;17.45;;;4.38;;
69502;SDS011;56704;54.242;12.442;2023-03-31T03:46:12;10.23;;;2.60;;
69502;SDS011;56704;54.242;12.442;2023-03-31T03:48:38;16.45;;;4.25;;
69502;SDS011;56704;54.242;12.442;2023-03-31T03:51:06;23.23;;;4.23;;
69502;SDS011;56704;54.242;12.442;2023-03-31T03:53:33;14.48;;;3.53;;
69502;SDS011;56704;54.242;12.442;2023-03-31T03:55:59;16.08;;;4.80;;
69502;SDS011;56704;54.242;12.442;2023-03-31T03:58:26;18.75;;;4.70;;
69502;SDS011;56704;54.242;12.442;2023-03-31T04:00:53;14.63;;;3.65;;
69502;SDS011;56704;54.242;12.442;2023-03-31T04:03:20;19.23;;;4.60;;
69502;SDS011;56704;54.242;12.442;2023-03-31T04:05:47;18.33;;;4.82;;
69502;SDS011;56704;54.242;12.442;2023-03-31T04:08:15;17.60;;;4.00;;
69502;SDS011;56704;54.242;12.442;2023-03-31T04:10:43;11.90;;;3.42;;
69502;SDS011;56704;54.242;12.442;2023-03-31T04:13:10;14.60;;;4.45;;
69502;SDS011;56704;54.242;12.442;2023-03-31T04:15:37;9.10;;;3.27;;
69502;SDS011;56704;54.242;12.442;2023-03-31T04:18:03;17.60;;;4.65;;
69502;SDS011;56704;54.242;12.442;2023-03-31T04:20:30;14.35;;;3.90;;
69502;SDS011;56704;54.242;12.442;2023-03-31T04:22:57;13.77;;;4.47;;
69502;SDS011;56704;54.242;12.442;2023-03-31T04:25:24;8.30;;;2.47;;
69502;SDS011;56704;54.242;12.442;2023-03-31T04:27:54;8.57;;;2.37;;
69502;SDS011;56704;54.242;12.442;2023-03-31T04:30:21;13.85;;;4.40;;
69502;SDS011;56704;54.242;12.442;2023-03-31T04:32:49;14.07;;;3.25;;
69502;SDS011;56704;54.242;12.442;2023-03-31T04:35:17;19.00;;;4.50;;
69502;SDS011;56704;54.242;12.442;2023-03-31T04:37:45;19.10;;;5.40;;
69502;SDS011;56704;54.242;12.442;2023-03-31T04:40:12;14.70;;;4.23;;
69502;SDS011;56704;54.242;12.442;2023-03-31T04:42:40;18.70;;;4.45;;
69502;SDS011;56704;54.242;12.442;2023-03-31T04:45:07;7.72;;;2.25;;
69502;SDS011;56704;54.242;12.442;2023-03-31T04:47:34;14.80;;;4.32;;
69502;SDS011;56704;54.242;12.442;2023-03-31T04:50:01;15.02;;;4.43;;
69502;SDS011;56704;54.242;12.442;2023-03-31T04:52:28;9.70;;;2.67;;
69502;SDS011;56704;54.242;12.442;2023-03-31T04:54:54;16.58;;;4.50;;
69502;SDS011;56704;54.242;12.442;2023-03-31T04:57:21;12.18;;;2.97;;
69502;SDS011;56704;54.242;12.442;2023-03-31T04:59:49;16.60;;;3.53;;
69502;SDS011;56704;54.242;12.442;2023-03-31T05:02:15;10.40;;;3.13;;
69502;SDS011;56704;54.242;12.442;2023-03-31T05:04:47;11.03;;;2.93;;
69502;SDS011;56704;54.242;12.442;2023-03-31T05:07:14;9.88;;;2.47;;
69502;SDS011;56704;54.242;12.442;2023-03-31T05:09:41;12.63;;;3.65;;
69502;SDS011;56704;54.242;12.442;2023-03-31T05:12:08;13.18;;;4.00;;
69502;SDS011;56704;54.242;12.442;2023-03-31T05:14:34;14.75;;;3.05;;
69502;SDS011;56704;54.242;12.442;2023-03-31T05:17:02;13.77;;;2.70;;
69502;SDS011;56704;54.242;12.442;2023-03-31T05:19:29;6.10;;;2.03;;
69502;SDS011;56704;54.242;12.442;2023-03-31T05:21:55;17.85;;;3.70;;
69502;SDS011;56704;54.242;12.442;2023-03-31T05:24:22;18.58;;;4.05;;
69502;SDS011;56704;54.242;12.442;2023-03-31T05:26:49;13.52;;;3.13;;
69502;SDS011;56704;54.242;12.442;2023-03-31T05:29:16;17.70;;;4.63;;
69502;SDS011;56704;54.242;12.442;2023-03-31T05:31:43;21.30;;;3.75;;
69502;SDS011;56704;54.242;12.442;2023-03-31T05:34:11;21.85;;;4.57;;
69502;SDS011;56704;54.242;12.442;2023-03-31T05:36:38;12.40;;;3.25;;
69502;SDS011;56704;54.242;12.442;2023-03-31T05:39:05;14.23;;;3.03;;
69502;SDS011;56704;54.242;12.442;2023-03-31T05:41:32;18.77;;;3.80;;
69502;SDS011;56704;54.242;12.442;2023-03-31T05:43:58;12.82;;;3.40;;
69502;SDS011;56704;54.242;12.442;2023-03-31T05:46:26;16.35;;;3.50;;
69502;SDS011;56704;54.242;12.442;2023-03-31T05:48:52;17.33;;;3.75;;
69502;SDS011;56704;54.242;12.442;2023-03-31T05:51:21;16.45;;;3.95;;
69502;SDS011;56704;54.242;12.442;2023-03-31T05:53:48;15.23;;;3.87;;
69502;SDS011;56704;54.242;12.442;2023-03-31T05:56:14;16.38;;;4.60;;
69502;SDS011;56704;54.242;12.442;2023-03-31T05:58:41;13.55;;;3.80;;
69502;SDS011;56704;54.242;12.442;2023-03-31T06:01:08;16.67;;;4.50;;
69502;SDS011;56704;54.242;12.442;2023-03-31T06:03:36;14.38;;;3.80;;
69502;SDS011;56704;54.242;12.442;2023-03-31T06:06:06;21.83;;;5.57;;
69502;SDS011;56704;54.242;12.442;2023-03-31T06:08:35;17.60;;;5.75;;
69502;SDS011;56704;54.242;12.442;2023-03-31T06:11:03;24.95;;;6.70;;
69502;SDS011;56704;54.242;12.442;2023-03-31T06:13:30;9.90;;;3.08;;
69502;SDS011;56704;54.242;12.442;2023-03-31T06:15:57;15.43;;;4.95;;
69502;SDS011;56704;54.242;12.442;2023-03-31T06:18:25;16.47;;;4.90;;
69502;SDS011;56704;54.242;12.442;2023-03-31T06:20:53;15.00;;;4.30;;
69502;SDS011;56704;54.242;12.442;2023-03-31T06:23:20;19.45;;;5.68;;
69502;SDS011;56704;54.242;12.442;2023-03-31T06:25:48;20.00;;;5.15;;
69502;SDS011;56704;54.242;12.442;2023-03-31T06:28:15;17.70;;;4.18;;
69502;SDS011;56704;54.242;12.442;2023-03-31T06:30:42;11.80;;;4.30;;
69502;SDS011;56704;54.242;12.442;2023-03-31T06:33:09;19.75;;;5.88;;
69502;SDS011;56704;54.242;12.442;2023-03-31T06:35:36;15.77;;;4.53;;
69502;SDS011;56704;54.242;12.442;2023-03-31T06:38:03;17.67;;;5.53;;
69502;SDS011;56704;54.242;12.442;2023-03-31T06:40:30;17.85;;;4.43;;
69502;SDS011;56704;54.242;12.442;2023-03-31T06:42:58;16.07;;;4.97;;
69502;SDS011;56704;54.242;12.442;2023-03-31T06:45:25;17.73;;;5.28;;
69502;SDS011;56704;54.242;12.442;2023-03-31T06:47:51;17.77;;;4.82;;
69502;SDS011;56704;54.242;12.442;2023-03-31T06:50:18;22.50;;;6.35;;
69502;SDS011;56704;54.242;12.442;2023-03-31T06:52:45;22.92;;;5.78;;
69502;SDS011;56704;54.242;12.442;2023-03-31T06:55:11;17.10;;;4.87;;
69502;SDS011;56704;54.242;12.442;2023-03-31T06:57:40;20.80;;;5.50;;
69502;SDS011;56704;54.242;12.442;2023-03-31T07:00:08;20.20;;;5.60;;
69502;SDS011;56704;54.242;12.442;2023-03-31T07:02:35;14.65;;;4.60;;
69502;SDS011;56704;54.242;12.442;2023-03-31T07:05:02;16.10;;;4.68;;
69502;SDS011;56704;54.242;12.442;2023-03-31T07:07:30;21.27;;;5.53;;
69502;SDS011;56704;54.242;12.442;2023-03-31T07:09:56;25.42;;;6.43;;
69502;SDS011;56704;54.242;12.442;2023-03-31T07:12:23;19.38;;;4.78;;
69502;SDS011;56704;54.242;12.442;2023-03-31T07:14:50;22.77;;;5.95;;
69502;SDS011;56704;54.242;12.442;2023-03-31T07:17:18;20.20;;;5.65;;
69502;SDS011;56704;54.242;12.442;2023-03-31T07:19:45;17.80;;;5.37;;
69502;SDS011;56704;54.242;12.442;2023-03-31T07:22:12;25.33;;;7.10;;
69502;SDS011;56704;54.242;12.442;2023-03-31T07:24:39;14.82;;;5.15;;
69502;SDS011;56704;54.242;12.442;2023-03-31T07:27:06;18.75;;;5.97;;
69502;SDS011;56704;54.242;12.442;2023-03-31T07:29:32;11.40;;;4.00;;
69502;SDS011;56704;54.242;12.442;2023-03-31T07:31:59;21.50;;;6.10;;
69502;SDS011;56704;54.242;12.442;2023-03-31T07:34:27;18.40;;;5.78;;
69502;SDS011;56704;54.242;12.442;2023-03-31T07:36:54;17.00;;;6.35;;
69502;SDS011;56704;54.242;12.442;2023-03-31T07:39:20;20.15;;;6.53;;
69502;SDS011;56704;54.242;12.442;2023-03-31T07:41:47;20.00;;;6.60;;
69502;SDS011;56704;54.242;12.442;2023-03-31T07:44:14;23.90;;;7.07;;
69502;SDS011;56704;54.242;12.442;2023-03-31T07:46:41;21.00;;;6.00;;
69502;SDS011;56704;54.242;12.442;2023-03-31T07:49:08;22.40;;;7.43;;
69502;SDS011;56704;54.242;12.442;2023-03-31T07:51:41;23.52;;;6.55;;
69502;SDS011;56704;54.242;12.442;2023-03-31T07:54:07;21.80;;;7.10;;
69502;SDS011;56704;54.242;12.442;2023-03-31T07:56:34;22.60;;;7.43;;
69502;SDS011;56704;54.242;12.442;2023-03-31T07:59:01;23.55;;;7.57;;
69502;SDS011;56704;54.242;12.442;2023-03-31T08:01:27;19.73;;;7.03;;
69502;SDS011;56704;54.242;12.442;2023-03-31T08:03:54;24.02;;;8.13;;
69502;SDS011;56704;54.242;12.442;2023-03-31T08:06:21;23.92;;;6.07;;
69502;SDS011;56704;54.242;12.442;2023-03-31T08:08:50;20.30;;;7.03;;
69502;SDS011;56704;54.242;12.442;2023-03-31T08:11:17;24.83;;;6.60;;
69502;SDS011;56704;54.242;12.442;2023-03-31T08:13:45;24.65;;;7.75;;
69502;SDS011;56704;54.242;12.442;2023-03-31T08:16:11;20.10;;;6.72;;
69502;SDS011;56704;54.242;12.442;2023-03-31T08:18:38;20.65;;;7.10;;
69502;SDS011;56704;54.242;12.442;2023-03-31T08:21:05;24.83;;;7.50;;
69502;SDS011;56704;54.242;12.442;2023-03-31T08:23:33;25.05;;;8.50;;
69502;SDS011;56704;54.242;12.442;2023-03-31T08:26:09;22.75;;;7.72;;
69502;SDS011;56704;54.242;12.442;2023-03-31T08:28:37;20.45;;;7.78;;
69502;SDS011;56704;54.242;12.442;2023-03-31T08:31:04;15.27;;;5.55;;
69502;SDS011;56704;54.242;12.442;2023-03-31T08:33:32;20.17;;;7.53;;
69502;SDS011;56704;54.242;12.442;2023-03-31T08:36:02;19.67;;;6.80;;
69502;SDS011;56704;54.242;12.442;2023-03-31T08:38:32;20.80;;;7.40;;
69502;SDS011;56704;54.242;12.442;2023-03-31T08:41:02;20.63;;;7.47;;
69502;SDS011;56704;54.242;12.442;2023-03-31T08:43:32;18.17;;;7.78;;
69502;SDS011;56704;54.242;12.442;2023-03-31T08:46:03;19.13;;;7.20;;
69502;SDS011;56704;54.242;12.442;2023-03-31T08:48:31;16.77;;;6.93;;
69502;SDS011;56704;54.242;12.442;2023-03-31T08:51:04;20.77;;;7.38;;
69502;SDS011;56704;54.242;12.442;2023-03-31T08:53:38;19.90;;;7.43;;
69502;SDS011;56704;54.242;12.442;2023-03-31T08:56:12;17.17;;;5.97;;
69502;SDS011;56704;54.242;12.442;2023-03-31T08:58:43;18.77;;;6.07;;
69502;SDS011;56704;54.242;12.442;2023-03-31T09:01:14;18.70;;;7.38;;
69502;SDS011;56704;54.242;12.442;2023-03-31T09:03:49;14.90;;;5.55;;
69502;SDS011;56704;54.242;12.442;2023-03-31T09:06:33;16.00;;;6.53;;
69502;SDS011;56704;54.242;12.442;2023-03-31T09:09:04;16.17;;;5.97;;
69502;SDS011;56704;54.242;12.442;2023-03-31T09:11:36;16.63;;;6.77;;
69502;SDS011;56704;54.242;12.442;2023-03-31T09:14:14;13.70;;;5.07;;
69502;SDS011;56704;54.242;12.442;2023-03-31T09:16:47;15.98;;;5.65;;
69502;SDS011;56704;54.242;12.442;2023-03-31T09:19:22;18.58;;;5.88;;
69502;SDS011;56704;54.242;12.442;2023-03-31T09:21:57;17.77;;;6.60;;
69502;SDS011;56704;54.242;12.442;2023-03-31T09:24:26;8.23;;;3.43;;
69502;SDS011;56704;54.242;12.442;2023-03-31T09:26:56;16.75;;;5.28;;
69502;SDS011;56704;54.242;12.442;2023-03-31T09:29:27;13.32;;;4.85;;
69502;SDS011;56704;54.242;12.442;2023-03-31T09:31:59;13.52;;;4.75;;
69502;SDS011;56704;54.242;12.442;2023-03-31T09:34:27;14.60;;;4.18;;
69502;SDS011;56704;54.242;12.442;2023-03-31T09:36:56;12.77;;;4.37;;
69502;SDS011;56704;54.242;12.442;2023-03-31T09:39:23;13.23;;;4.63;;
69502;SDS011;56704;54.242;12.442;2023-03-31T09:41:50;13.50;;;4.10;;
69502;SDS011;56704;54.242;12.442;2023-03-31T09:44:21;13.80;;;5.07;;
69502;SDS011;56704;54.242;12.442;2023-03-31T09:46:52;11.82;;;4.78;;
69502;SDS011;56704;54.242;12.442;2023-03-31T09:49:20;13.67;;;4.40;;
69502;SDS011;56704;54.242;12.442;2023-03-31T09:51:51;9.10;;;3.03;;
69502;SDS011;56704;54.242;12.442;2023-03-31T09:54:33;10.75;;;3.40;;
69502;SDS011;56704;54.242;12.442;2023-03-31T09:57:02;11.40;;;3.90;;
69502;SDS011;56704;54.242;12.442;2023-03-31T09:59:37;12.23;;;3.17;;
69502;SDS011;56704;54.242;12.442;2023-03-31T10:02:14;10.23;;;2.80;;
69502;SDS011;56704;54.242;12.442;2023-03-31T10:04:49;12.10;;;3.60;;
69502;SDS011;56704;54.242;12.442;2023-03-31T10:07:18;14.10;;;3.95;;
69502;SDS011;56704;54.242;12.442;2023-03-31T10:09:46;12.68;;;3.78;;
69502;SDS011;56704;54.242;12.442;2023-03-31T10:12:15;14.27;;;2.85;;
69502;SDS011;56704;54.242;12.442;2023-03-31T10:14:45;6.77;;;1.90;;
69502;SDS011;56704;54.242;12.442;2023-03-31T10:17:15;8.52;;;2.50;;
69502;SDS011;56704;54.242;12.442;2023-03-31T10:19:46;8.85;;;2.70;;
69502;SDS011;56704;54.242;12.442;2023-03-31T10:22:17;10.95;;;3.00;;
69502;SDS011;56704;54.242;12.442;2023-03-31T10:24:53;10.88;;;3.00;;
69502;SDS011;56704;54.242;12.442;2023-03-31T10:27:21;11.13;;;2.73;;
69502;SDS011;56704;54.242;12.442;2023-03-31T10:29:51;11.52;;;3.00;;
69502;SDS011;56704;54.242;12.442;2023-03-31T10:32:21;7.18;;;2.63;;
69502;SDS011;56704;54.242;12.442;2023-03-31T10:34:52;11.07;;;2.63;;
69502;SDS011;56704;54.242;12.442;2023-03-31T10:37:21;11.52;;;2.85;;
69502;SDS011;56704;54.242;12.442;2023-03-31T10:39:55;8.87;;;2.53;;
69502;SDS011;56704;54.242;12.442;2023-03-31T10:42:22;6.78;;;1.55;;
69502;SDS011;56704;54.242;12.442;2023-03-31T10:44:50;6.72;;;2.13;;
69502;SDS011;56704;54.242;12.442;2023-03-31T10:47:38;9.48;;;1.80;;
69502;SDS011;56704;54.242;12.442;2023-03-31T10:50:11;8.55;;;2.15;;
69502;SDS011;56704;54.242;12.442;2023-03-31T10:52:42;9.50;;;2.27;;
69502;SDS011;56704;54.242;12.442;2023-03-31T10:55:11;9.02;;;2.08;;
69502;SDS011;56704;54.242;12.442;2023-03-31T10:57:39;5.63;;;1.75;;
69502;SDS011;56704;54.242;12.442;2023-03-31T11:00:17;6.80;;;2.30;;
69502;SDS011;56704;54.242;12.442;2023-03-31T11:03:03;8.43;;;2.00;;
69502;SDS011;56704;54.242;12.442;2023-03-31T11:05:42;3.73;;;1.20;;
69502;SDS011;56704;54.242;12.442;2023-03-31T11:11:14;9.65;;;1.92;;
69502;SDS011;56704;54.242;12.442;2023-03-31T11:14:04;7.43;;;1.48;;
69502;SDS011;56704;54.242;12.442;2023-03-31T11:16:38;7.70;;;1.95;;
69502;SDS011;56704;54.242;12.442;2023-03-31T11:19:18;6.13;;;1.83;;
69502;SDS011;56704;54.242;12.442;2023-03-31T11:21:56;6.38;;;1.95;;
69502;SDS011;56704;54.242;12.442;2023-03-31T11:24:37;9.30;;;2.15;;
69502;SDS011;56704;54.242;12.442;2023-03-31T11:27:29;7.70;;;1.55;;
69502;SDS011;56704;54.242;12.442;2023-03-31T11:30:06;7.72;;;1.63;;
69502;SDS011;56704;54.242;12.442;2023-03-31T11:32:43;7.37;;;1.87;;
69502;SDS011;56704;54.242;12.442;2023-03-31T11:35:27;9.45;;;2.17;;
69502;SDS011;56704;54.242;12.442;2023-03-31T11:38:14;5.53;;;1.30;;
69502;SDS011;56704;54.242;12.442;2023-03-31T11:40:56;5.63;;;1.65;;
69502;SDS011;56704;54.242;12.442;2023-03-31T11:43:26;7.10;;;1.70;;
69502;SDS011;56704;54.242;12.442;2023-03-31T11:45:59;5.57;;;1.37;;
69502;SDS011;56704;54.242;12.442;2023-03-31T11:48:32;8.68;;;2.15;;
69502;SDS011;56704;54.242;12.442;2023-03-31T11:51:06;8.82;;;1.20;;
69502;SDS011;56704;54.242;12.442;2023-03-31T11:53:38;10.80;;;2.28;;
69502;SDS011;56704;54.242;12.442;2023-03-31T11:56:08;11.57;;;2.53;;
69502;SDS011;56704;54.242;12.442;2023-03-31T11:58:37;10.77;;;2.40;;
69502;SDS011;56704;54.242;12.442;2023-03-31T12:01:08;8.52;;;1.95;;
69502;SDS011;56704;54.242;12.442;2023-03-31T12:03:43;8.52;;;2.47;;
69502;SDS011;56704;54.242;12.442;2023-03-31T12:06:19;6.50;;;1.92;;
69502;SDS011;56704;54.242;12.442;2023-03-31T12:08:50;8.00;;;2.00;;
69502;SDS011;56704;54.242;12.442;2023-03-31T12:11:30;8.10;;;2.07;;
69502;SDS011;56704;54.242;12.442;2023-03-31T12:14:03;6.97;;;2.20;;
69502;SDS011;56704;54.242;12.442;2023-03-31T12:16:39;5.43;;;1.70;;
69502;SDS011;56704;54.242;12.442;2023-03-31T12:19:10;6.10;;;1.33;;
69502;SDS011;56704;54.242;12.442;2023-03-31T12:21:47;6.60;;;1.63;;
69502;SDS011;56704;54.242;12.442;2023-03-31T12:24:16;7.43;;;2.07;;
69502;SDS011;56704;54.242;12.442;2023-03-31T12:26:45;4.13;;;1.48;;
69502;SDS011;56704;54.242;12.442;2023-03-31T12:29:23;6.38;;;1.60;;
69502;SDS011;56704;54.242;12.442;2023-03-31T12:31:53;8.15;;;2.10;;
69502;SDS011;56704;54.242;12.442;2023-03-31T12:34:22;7.07;;;2.00;;
69502;SDS011;56704;54.242;12.442;2023-03-31T12:37:01;8.07;;;1.97;;
69502;SDS011;56704;54.242;12.442;2023-03-31T12:39:43;7.40;;;1.75;;
69502;SDS011;56704;54.242;12.442;2023-03-31T12:42:34;8.70;;;2.08;;
69502;SDS011;56704;54.242;12.442;2023-03-31T12:45:15;9.85;;;2.15;;
69502;SDS011;56704;54.242;12.442;2023-03-31T12:47:52;6.63;;;1.58;;
69502;SDS011;56704;54.242;12.442;2023-03-31T12:50:44;11.53;;;1.80;;
69502;SDS011;56704;54.242;12.442;2023-03-31T12:53:23;8.88;;;1.90;;
69502;SDS011;56704;54.242;12.442;2023-03-31T12:55:56;6.07;;;1.02;;
69502;SDS011;56704;54.242;12.442;2023-03-31T12:58:41;5.85;;;1.92;;
69502;SDS011;56704;54.242;12.442;2023-03-31T13:01:10;8.32;;;2.13;;
69502;SDS011;56704;54.242;12.442;2023-03-31T13:03:45;7.60;;;1.97;;
69502;SDS011;56704;54.242;12.442;2023-03-31T13:09:40;5.28;;;1.63;;
69502;SDS011;56704;54.242;12.442;2023-03-31T13:12:15;9.85;;;1.95;;
69502;SDS011;56704;54.242;12.442;2023-03-31T13:14:44;9.38;;;2.08;;
69502;SDS011;56704;54.242;12.442;2023-03-31T13:17:23;5.83;;;1.80;;
69502;SDS011;56704;54.242;12.442;2023-03-31T13:19:51;7.13;;;1.73;;
69502;SDS011;56704;54.242;12.442;2023-03-31T13:22:29;10.55;;;2.17;;
69502;SDS011;56704;54.242;12.442;2023-03-31T13:31:00;6.77;;;1.80;;
69502;SDS011;56704;54.242;12.442;2023-03-31T13:33:30;6.85;;;1.90;;
69502;SDS011;56704;54.242;12.442;2023-03-31T13:36:18;10.38;;;2.15;;
69502;SDS011;56704;54.242;12.442;2023-03-31T13:42:26;7.45;;;1.48;;
69502;SDS011;56704;54.242;12.442;2023-03-31T13:45:09;5.50;;;1.70;;
69502;SDS011;56704;54.242;12.442;2023-03-31T13:48:02;7.30;;;2.03;;
69502;SDS011;56704;54.242;12.442;2023-03-31T13:50:41;10.30;;;2.65;;
69502;SDS011;56704;54.242;12.442;2023-03-31T13:53:20;8.57;;;1.90;;
69502;SDS011;56704;54.242;12.442;2023-03-31T13:56:21;5.95;;;1.63;;
69502;SDS011;56704;54.242;12.442;2023-03-31T14:05:10;9.50;;;2.70;;
69502;SDS011;56704;54.242;12.442;2023-03-31T14:07:47;9.13;;;2.33;;
69502;SDS011;56704;54.242;12.442;2023-03-31T14:10:22;9.75;;;3.08;;
69502;SDS011;56704;54.242;12.442;2023-03-31T14:13:03;10.17;;;3.10;;
69502;SDS011;56704;54.242;12.442;2023-03-31T14:15:36;9.73;;;3.33;;
69502;SDS011;56704;54.242;12.442;2023-03-31T14:18:05;7.88;;;1.92;;
69502;SDS011;56704;54.242;12.442;2023-03-31T14:20:38;15.68;;;4.10;;
69502;SDS011;56704;54.242;12.442;2023-03-31T14:23:12;9.55;;;3.10;;
69502;SDS011;56704;54.242;12.442;2023-03-31T14:25:52;16.43;;;3.33;;
69502;SDS011;56704;54.242;12.442;2023-03-31T14:28:30;11.10;;;3.45;;
69502;SDS011;56704;54.242;12.442;2023-03-31T14:31:11;15.13;;;3.42;;
69502;SDS011;56704;54.242;12.442;2023-03-31T14:33:46;10.88;;;3.40;;
69502;SDS011;56704;54.242;12.442;2023-03-31T14:36:26;12.85;;;3.58;;
69502;SDS011;56704;54.242;12.442;2023-03-31T14:39:00;13.90;;;3.43;;
69502;SDS011;56704;54.242;12.442;2023-03-31T14:41:28;10.60;;;3.60;;
69502;SDS011;56704;54.242;12.442;2023-03-31T14:43:55;6.93;;;2.90;;
69502;SDS011;56704;54.242;12.442;2023-03-31T14:46:29;8.98;;;2.80;;
69502;SDS011;56704;54.242;12.442;2023-03-31T14:48:57;13.43;;;3.33;;
69502;SDS011;56704;54.242;12.442;2023-03-31T14:51:25;8.53;;;2.60;;
69502;SDS011;56704;54.242;12.442;2023-03-31T14:53:56;8.57;;;2.70;;
69502;SDS011;56704;54.242;12.442;2023-03-31T14:56:25;7.95;;;2.50;;
69502;SDS011;56704;54.242;12.442;2023-03-31T14:58:57;11.07;;;2.97;;
69502;SDS011;56704;54.242;12.442;2023-03-31T15:01:28;9.68;;;3.13;;
69502;SDS011;56704;54.242;12.442;2023-03-31T15:03:59;9.43;;;2.90;;
69502;SDS011;56704;54.242;12.442;2023-03-31T15:06:29;9.82;;;3.00;;
69502;SDS011;56704;54.242;12.442;2023-03-31T15:08:59;11.77;;;3.00;;
69502;SDS011;56704;54.242;12.442;2023-03-31T15:11:28;9.13;;;2.85;;
69502;SDS011;56704;54.242;12.442;2023-03-31T15:13:56;11.48;;;3.05;;
69502;SDS011;56704;54.242;12.442;2023-03-31T15:16:30;11.77;;;3.90;;
69502;SDS011;56704;54.242;12.442;2023-03-31T15:19:03;10.93;;;4.78;;
69502;SDS011;56704;54.242;12.442;2023-03-31T15:21:35;12.65;;;3.75;;
69502;SDS011;56704;54.242;12.442;2023-03-31T15:24:03;10.52;;;3.30;;
69502;SDS011;56704;54.242;12.442;2023-03-31T15:26:31;9.15;;;3.53;;